Time;durP1;ratioP1;P1;durP2;ratioP2;P2;SDS_P1;SDS_P2;PMS_P1;PMS_P2;Temp;Humidity;BMP_temperature;BMP_pressure;BME280_temperature;BME280_humidity;BME280_pressure;Samples;Min_cycle;Max_cycle;Signal;HPM_P1;HPM_P2
2023/12/13 00:00:24;;;;;;;2.20;1.10;;;;;;;9.14;100.00;98808.28;5058310;28;20186;-77
2023/12/13 00:02:50;;;;;;;4.90;1.20;;;;;;;9.14;100.00;98809.13;5056516;28;20193;-77
2023/12/13 00:05:15;;;;;;;2.10;1.00;;;;;;;9.16;100.00;98803.94;5059829;28;20206;-74
2023/12/13 00:07:40;;;;;;;2.50;1.07;;;;;;;9.17;100.00;98792.72;5057248;28;20190;-75
2023/12/13 00:10:06;;;;;;;3.33;1.10;;;;;;;9.20;100.00;98795.22;5056475;28;20194;-77
2023/12/13 00:12:34;;;;;;;3.43;1.00;;;;;;;9.20;100.00;98787.47;5059052;28;20193;-76
2023/12/13 00:14:59;;;;;;;2.67;0.80;;;;;;;9.23;100.00;98786.53;5056784;28;20202;-77
2023/12/13 00:17:24;;;;;;;1.70;0.80;;;;;;;9.24;100.00;98781.31;5055528;28;20185;-77
2023/12/13 00:19:50;;;;;;;2.77;0.80;;;;;;;9.22;100.00;98782.25;5056953;28;20734;-75
2023/12/13 00:22:15;;;;;;;3.40;0.90;;;;;;;9.24;100.00;98791.63;5062100;28;20185;-74
2023/12/13 00:24:40;;;;;;;1.93;0.90;;;;;;;9.28;100.00;98782.94;5059449;28;20717;-76
2023/12/13 00:27:06;;;;;;;1.63;0.73;;;;;;;9.36;100.00;98787.88;5061999;28;20210;-77
2023/12/13 00:29:31;;;;;;;1.53;0.80;;;;;;;9.41;100.00;98774.84;5060620;28;20186;-76
2023/12/13 00:31:56;;;;;;;3.43;1.20;;;;;;;9.46;100.00;98770.41;5056023;28;20709;-77
2023/12/13 00:34:22;;;;;;;2.93;1.20;;;;;;;9.48;100.00;98775.50;5061765;28;20230;-77
2023/12/13 00:36:47;;;;;;;1.50;0.80;;;;;;;9.48;100.00;98766.03;5059964;28;20570;-77
2023/12/13 00:39:12;;;;;;;2.60;1.10;;;;;;;9.52;100.00;98770.22;5061863;28;20178;-77
2023/12/13 00:41:37;;;;;;;1.60;1.10;;;;;;;9.49;100.00;98772.91;5061211;28;20189;-76
2023/12/13 00:44:03;;;;;;;1.20;0.80;;;;;;;9.49;100.00;98766.88;5059325;28;20220;-75
2023/12/13 00:46:29;;;;;;;2.60;1.00;;;;;;;9.49;100.00;98774.63;5061727;28;22091;-76
2023/12/13 00:48:54;;;;;;;3.63;0.93;;;;;;;9.48;100.00;98778.09;5059955;28;20267;-77
2023/12/13 00:51:21;;;;;;;3.17;1.07;;;;;;;9.45;100.00;98772.13;5059553;28;20679;-76
2023/12/13 00:53:47;;;;;;;3.10;1.03;;;;;;;9.45;100.00;98777.28;5058458;28;20182;-77
2023/12/13 00:56:13;;;;;;;2.13;0.80;;;;;;;9.48;100.00;98772.91;5061688;28;20251;-77
2023/12/13 00:58:38;;;;;;;2.10;0.93;;;;;;;9.52;100.00;98769.38;5060192;28;20228;-76
2023/12/13 01:01:05;;;;;;;2.27;0.83;;;;;;;9.59;100.00;98786.38;5061739;28;20282;-77
2023/12/13 01:03:30;;;;;;;2.53;0.87;;;;;;;9.64;100.00;98787.09;5060224;28;20206;-77
2023/12/13 01:05:56;;;;;;;1.83;0.83;;;;;;;9.68;100.00;98783.53;5055580;28;20229;-76
2023/12/13 01:08:21;;;;;;;3.30;0.80;;;;;;;9.68;100.00;98791.28;5072215;28;20197;-76
2023/12/13 01:10:47;;;;;;;1.80;0.90;;;;;;;9.68;100.00;98791.28;5061824;28;20681;-76
2023/12/13 01:13:12;;;;;;;2.27;0.70;;;;;;;9.66;100.00;98789.63;5060696;28;20198;-77
2023/12/13 01:15:37;;;;;;;2.27;1.00;;;;;;;9.64;100.00;98788.84;5060682;28;20255;-77
2023/12/13 01:18:03;;;;;;;2.67;0.80;;;;;;;9.63;100.00;98793.13;5061401;28;20272;-77
2023/12/13 01:20:28;;;;;;;2.97;1.00;;;;;;;9.65;100.00;98806.84;5063470;28;20182;-76
2023/12/13 01:22:54;;;;;;;2.13;0.80;;;;;;;9.64;100.00;98810.34;5061503;28;20221;-76
2023/12/13 01:25:19;;;;;;;2.07;0.83;;;;;;;9.63;100.00;98812.97;5060913;28;20887;-76
2023/12/13 01:27:44;;;;;;;1.63;1.00;;;;;;;9.60;100.00;98809.59;5061806;28;20690;-77
2023/12/13 01:30:10;;;;;;;2.83;0.80;;;;;;;9.56;100.00;98807.97;5063272;28;20186;-76
2023/12/13 01:32:35;;;;;;;1.37;0.77;;;;;;;9.53;100.00;98810.63;5063779;28;20312;-76
2023/12/13 01:35:01;;;;;;;2.33;0.90;;;;;;;9.49;100.00;98805.59;5062763;28;20210;-77
2023/12/13 01:37:27;;;;;;;1.63;0.70;;;;;;;9.47;100.00;98805.66;5062729;28;20212;-76
2023/12/13 01:39:56;;;;;;;1.80;0.80;;;;;;;9.44;100.00;98816.94;5058926;28;20697;-77
2023/12/13 01:42:22;;;;;;;1.50;0.70;;;;;;;9.44;100.00;98836.72;5058264;28;20186;-76
2023/12/13 01:44:47;;;;;;;1.63;0.70;;;;;;;9.40;100.00;98833.38;5059064;28;20748;-76
2023/12/13 01:47:13;;;;;;;1.50;0.80;;;;;;;9.35;100.00;98849.91;5058463;28;20192;-76
2023/12/13 01:49:39;;;;;;;1.70;0.70;;;;;;;9.33;100.00;98862.00;5059954;28;20186;-76
2023/12/13 01:52:06;;;;;;;2.57;0.70;;;;;;;9.27;100.00;98856.09;5058446;28;20193;-77
2023/12/13 01:54:32;;;;;;;1.47;0.57;;;;;;;9.25;100.00;98850.13;5061345;28;20205;-77
2023/12/13 01:56:58;;;;;;;1.37;0.60;;;;;;;9.24;100.00;98842.44;5057660;28;20186;-76
2023/12/13 01:59:24;;;;;;;0.63;0.47;;;;;;;9.25;100.00;98844.97;5057688;28;20185;-76
2023/12/13 02:01:49;;;;;;;0.80;0.50;;;;;;;9.26;100.00;98835.50;5058130;28;20189;-77
2023/12/13 02:04:17;;;;;;;0.83;0.50;;;;;;;9.26;100.00;98830.34;5059855;28;20221;-77
2023/12/13 02:06:42;;;;;;;0.97;0.37;;;;;;;9.26;100.00;98838.09;5058674;28;20225;-76
2023/12/13 02:09:08;;;;;;;1.53;0.43;;;;;;;9.27;100.00;98824.28;5059172;28;20269;-77
2023/12/13 02:11:34;;;;;;;1.17;0.57;;;;;;;9.23;100.00;98822.66;5057140;28;20829;-76
2023/12/13 02:14:01;;;;;;;1.80;0.40;;;;;;;9.19;100.00;98819.34;5057576;28;20636;-75
2023/12/13 02:16:26;;;;;;;0.77;0.30;;;;;;;9.18;100.00;98827.09;5057642;28;20190;-76
2023/12/13 02:18:52;;;;;;;1.53;0.60;;;;;;;9.19;100.00;98831.38;5059129;28;20186;-75
2023/12/13 02:21:17;;;;;;;1.17;0.50;;;;;;;9.16;100.00;98819.41;5060135;28;21077;-76
2023/12/13 02:23:43;;;;;;;2.60;0.50;;;;;;;9.15;100.00;98815.97;5058147;28;20590;-76
2023/12/13 02:26:12;;;;;;;1.07;0.57;;;;;;;9.12;100.00;98818.66;5057708;28;20301;-77
2023/12/13 02:28:37;;;;;;;0.80;0.40;;;;;;;9.10;100.00;98814.41;5056741;28;20950;-76
2023/12/13 02:31:03;;;;;;;1.70;0.47;;;;;;;9.09;100.00;98813.56;5060837;28;20189;-76
2023/12/13 02:33:29;;;;;;;2.10;0.60;;;;;;;9.10;100.00;98806.66;5058524;28;20194;-76
2023/12/13 02:35:59;;;;;;;1.10;0.40;;;;;;;9.07;100.00;98794.69;5058286;28;20640;-75
2023/12/13 02:38:25;;;;;;;1.00;0.50;;;;;;;9.07;100.00;98794.69;5061186;28;20198;-76
2023/12/13 02:40:52;;;;;;;0.30;0.30;;;;;;;9.06;100.00;98794.75;5058257;28;20555;-75
2023/12/13 02:43:18;;;;;;;0.90;0.40;;;;;;;9.02;100.00;98793.13;5057734;28;20193;-76
2023/12/13 02:45:43;;;;;;;1.30;0.40;;;;;;;9.02;100.00;98783.63;5054390;28;20205;-76
2023/12/13 02:48:10;;;;;;;1.00;0.43;;;;;;;9.04;100.00;98771.53;5059783;28;20182;-76
2023/12/13 02:50:36;;;;;;;1.17;0.50;;;;;;;9.09;100.00;98769.69;5057436;28;20259;-75
2023/12/13 02:53:03;;;;;;;0.50;0.30;;;;;;;9.10;100.00;98766.22;5058359;28;20189;-76
2023/12/13 02:55:28;;;;;;;0.90;0.27;;;;;;;9.13;100.00;98768.72;5052407;28;20252;-77
2023/12/13 02:57:54;;;;;;;0.83;0.30;;;;;;;9.15;100.00;98764.34;5058711;28;20269;-76
2023/12/13 03:00:19;;;;;;;0.80;0.40;;;;;;;9.17;100.00;98761.75;5059331;28;20205;-75
2023/12/13 03:02:44;;;;;;;0.77;0.50;;;;;;;9.18;100.00;98754.84;5057694;28;20678;-76
2023/12/13 03:05:10;;;;;;;0.83;0.30;;;;;;;9.15;100.00;98746.28;5057748;28;20209;-77
2023/12/13 03:07:39;;;;;;;0.97;0.33;;;;;;;9.13;100.00;98742.91;5053719;28;20940;-76
2023/12/13 03:10:04;;;;;;;0.57;0.40;;;;;;;9.12;100.00;98742.94;5056448;28;20186;-77
2023/12/13 03:12:30;;;;;;;1.07;0.30;;;;;;;9.11;100.00;98739.53;5059020;28;20307;-76
2023/12/13 03:14:55;;;;;;;0.73;0.40;;;;;;;9.11;100.00;98739.53;5063598;28;20260;-77
2023/12/13 03:17:21;;;;;;;1.03;0.43;;;;;;;9.07;100.00;98724.19;5053728;28;22384;-76
2023/12/13 03:19:46;;;;;;;0.63;0.40;;;;;;;9.02;100.00;98713.13;5060377;28;20643;-76
2023/12/13 03:22:11;;;;;;;0.40;0.20;;;;;;;8.95;100.00;98713.28;5063318;28;20209;-76
2023/12/13 03:24:37;;;;;;;0.60;0.40;;;;;;;8.92;100.00;98722.84;5059551;28;20667;-77
2023/12/13 03:27:02;;;;;;;0.50;0.33;;;;;;;8.90;100.00;98727.22;5064975;28;20185;-76
2023/12/13 03:29:28;;;;;;;1.40;0.43;;;;;;;8.90;100.00;98719.47;5060413;28;20185;-77
2023/12/13 03:31:54;;;;;;;1.23;0.30;;;;;;;8.90;100.00;98711.72;5057615;28;20182;-76
2023/12/13 03:34:19;;;;;;;0.50;0.40;;;;;;;8.92;100.00;98718.56;5058571;28;20262;-77
2023/12/13 03:36:44;;;;;;;1.10;0.40;;;;;;;8.93;100.00;98715.06;5059288;28;20250;-76
2023/12/13 03:39:10;;;;;;;0.40;0.30;;;;;;;8.93;100.00;98714.22;5059166;28;20305;-77
2023/12/13 03:41:35;;;;;;;1.43;0.40;;;;;;;8.92;100.00;98715.13;5057110;28;20178;-76
2023/12/13 03:44:00;;;;;;;1.70;0.50;;;;;;;8.87;100.00;98715.25;5055494;28;20879;-76
2023/12/13 03:46:26;;;;;;;0.77;0.50;;;;;;;8.82;100.00;98712.81;5058785;28;20273;-77
2023/12/13 03:48:51;;;;;;;0.97;0.40;;;;;;;8.78;100.00;98713.75;5057877;28;20265;-77
2023/12/13 03:51:16;;;;;;;0.47;0.30;;;;;;;8.78;100.00;98707.75;5058230;28;20178;-77
2023/12/13 03:53:42;;;;;;;0.50;0.33;;;;;;;8.79;100.00;98697.41;5057713;28;20217;-76
2023/12/13 03:56:09;;;;;;;0.60;0.37;;;;;;;8.81;100.00;98711.09;5057555;28;20283;-76
2023/12/13 03:58:35;;;;;;;0.40;0.30;;;;;;;8.82;100.00;98710.22;5056170;28;20198;-76
2023/12/13 04:01:00;;;;;;;0.30;0.30;;;;;;;8.81;100.00;98703.38;5055640;28;20592;-76
2023/12/13 04:03:26;;;;;;;1.37;0.47;;;;;;;8.84;100.00;98692.13;5056324;28;20189;-77
2023/12/13 04:05:51;;;;;;;0.60;0.37;;;;;;;8.85;100.00;98697.22;5056570;28;20206;-76
2023/12/13 04:08:17;;;;;;;0.80;0.60;;;;;;;8.89;100.00;98694.56;5056951;28;20678;-76
2023/12/13 04:10:42;;;;;;;1.17;0.50;;;;;;;8.91;100.00;98685.03;5055763;28;21298;-77
2023/12/13 04:13:07;;;;;;;0.73;0.50;;;;;;;8.89;100.00;98685.09;5055851;28;20608;-76
2023/12/13 04:15:33;;;;;;;1.23;0.60;;;;;;;8.90;100.00;98685.94;5051664;28;20276;-76
2023/12/13 04:17:58;;;;;;;1.43;0.60;;;;;;;8.92;100.00;98676.41;5056249;28;20186;-76
2023/12/13 04:20:23;;;;;;;1.23;0.50;;;;;;;8.94;100.00;98677.22;5057400;28;20192;-75
2023/12/13 04:22:49;;;;;;;0.83;0.50;;;;;;;8.94;100.00;98667.75;5056378;28;20858;-76
2023/12/13 04:25:14;;;;;;;1.03;0.40;;;;;;;8.92;100.00;98674.69;5058783;28;20213;-76
2023/12/13 04:27:40;;;;;;;1.27;0.50;;;;;;;8.90;100.00;98666.16;5057448;28;20268;-75
2023/12/13 04:30:06;;;;;;;0.70;0.40;;;;;;;8.87;100.00;98665.38;5057448;28;20189;-77
2023/12/13 04:32:31;;;;;;;0.80;0.50;;;;;;;8.82;100.00;98666.38;5054154;28;20330;-76
2023/12/13 04:34:57;;;;;;;0.93;0.43;;;;;;;8.81;100.00;98674.13;5055710;28;20217;-77
2023/12/13 04:37:23;;;;;;;1.63;0.60;;;;;;;8.79;100.00;98670.75;5054994;28;20282;-75
2023/12/13 04:39:48;;;;;;;1.37;0.60;;;;;;;8.76;100.00;98663.94;5057174;28;20673;-75
2023/12/13 04:42:14;;;;;;;0.67;0.50;;;;;;;8.77;100.00;98664.81;5055844;28;20188;-76
2023/12/13 04:44:39;;;;;;;0.80;0.50;;;;;;;8.78;100.00;98666.47;5051895;28;20206;-76
2023/12/13 04:47:05;;;;;;;0.77;0.70;;;;;;;8.79;100.00;98661.28;5055804;28;20182;-76
2023/12/13 04:49:30;;;;;;;1.40;0.60;;;;;;;8.81;100.00;98662.09;5054690;28;20292;-76
2023/12/13 04:51:56;;;;;;;1.50;0.60;;;;;;;8.81;100.00;98662.09;5057392;28;20247;-77
2023/12/13 04:54:21;;;;;;;1.30;0.63;;;;;;;8.80;100.00;98654.38;5057922;28;20201;-76
2023/12/13 04:56:46;;;;;;;2.27;0.80;;;;;;;8.77;100.00;98646.75;5057853;28;20714;-77
2023/12/13 04:59:12;;;;;;;0.60;0.60;;;;;;;8.77;100.00;98639.84;5057444;28;20178;-76
2023/12/13 05:01:37;;;;;;;1.70;0.60;;;;;;;8.75;100.00;98641.63;5057075;28;20203;-77
2023/12/13 05:04:03;;;;;;;2.50;0.70;;;;;;;8.73;100.00;98648.56;5055168;28;20928;-77
2023/12/13 05:06:28;;;;;;;1.10;0.80;;;;;;;8.71;100.00;98639.19;5052247;28;20678;-75
2023/12/13 05:08:53;;;;;;;1.37;0.90;;;;;;;8.66;100.00;98640.13;5055479;28;20217;-76
2023/12/13 05:11:19;;;;;;;1.17;0.70;;;;;;;8.66;100.00;98641.88;5059031;28;20188;-76
2023/12/13 05:13:44;;;;;;;1.40;0.90;;;;;;;8.66;100.00;98636.72;5062362;28;20174;-76
2023/12/13 05:16:10;;;;;;;0.67;0.50;;;;;;;8.66;100.00;98626.41;5060650;28;20560;-76
2023/12/13 05:18:35;;;;;;;1.87;0.60;;;;;;;8.65;100.00;98628.13;5062164;28;20273;-76
2023/12/13 05:21:03;;;;;;;1.90;0.70;;;;;;;8.64;100.00;98629.03;5059543;28;20185;-76
2023/12/13 05:23:29;;;;;;;0.77;0.53;;;;;;;8.62;100.00;98623.06;5057458;28;20193;-75
2023/12/13 05:25:54;;;;;;;1.27;0.70;;;;;;;8.63;100.00;98622.16;5057967;28;20214;-77
2023/12/13 05:28:20;;;;;;;1.73;0.60;;;;;;;8.64;100.00;98626.44;5059184;28;20190;-76
2023/12/13 05:30:45;;;;;;;1.50;0.50;;;;;;;8.64;100.00;98623.03;5056257;28;20197;-76
2023/12/13 05:33:11;;;;;;;1.17;0.63;;;;;;;8.61;100.00;98621.41;5061985;28;20250;-76
2023/12/13 05:35:36;;;;;;;1.50;0.70;;;;;;;8.57;100.00;98619.78;5059320;28;20312;-76
2023/12/13 05:38:01;;;;;;;2.13;0.63;;;;;;;8.52;100.00;98627.66;5059499;28;20186;-76
2023/12/13 05:40:26;;;;;;;1.07;0.60;;;;;;;8.47;100.00;98620.91;5059756;28;20201;-76
2023/12/13 05:42:53;;;;;;;1.97;0.93;;;;;;;8.44;100.00;98623.56;5061593;28;20184;-77
2023/12/13 05:45:19;;;;;;;1.43;0.77;;;;;;;8.44;100.00;98626.97;5061195;28;20213;-76
2023/12/13 05:47:44;;;;;;;1.40;0.80;;;;;;;8.43;100.00;98624.44;5061366;28;20247;-77
2023/12/13 05:50:09;;;;;;;1.37;0.60;;;;;;;8.48;100.00;98625.16;5056590;28;20189;-75
2023/12/13 05:52:36;;;;;;;0.67;0.60;;;;;;;8.46;100.00;98630.34;5058970;28;20626;-76
2023/12/13 05:55:02;;;;;;;2.47;0.70;;;;;;;8.46;100.00;98616.63;5058641;28;20200;-76
2023/12/13 05:57:27;;;;;;;1.40;0.60;;;;;;;8.47;100.00;98621.72;5059616;28;20216;-77
2023/12/13 05:59:53;;;;;;;2.30;0.70;;;;;;;8.46;100.00;98616.63;5059026;28;20559;-76
2023/12/13 06:02:18;;;;;;;2.07;0.83;;;;;;;8.42;100.00;98610.69;5057740;28;20227;-76
2023/12/13 06:04:43;;;;;;;0.97;0.60;;;;;;;8.38;100.00;98611.69;5058920;28;20301;-75
2023/12/13 06:07:09;;;;;;;2.30;0.60;;;;;;;8.34;100.00;98615.22;5056951;28;20215;-77
2023/12/13 06:09:35;;;;;;;1.20;0.53;;;;;;;8.32;100.00;98614.41;5058995;28;20365;-77
2023/12/13 06:12:00;;;;;;;0.70;0.40;;;;;;;8.35;100.00;98616.91;5057321;28;20192;-76
2023/12/13 06:14:26;;;;;;;0.83;0.70;;;;;;;8.36;100.00;98619.44;5056269;28;21044;-76
2023/12/13 06:16:51;;;;;;;1.03;0.37;;;;;;;8.38;100.00;98615.09;5060168;28;20181;-77
2023/12/13 06:19:16;;;;;;;1.37;0.47;;;;;;;8.40;100.00;98609.88;5060292;28;20217;-76
2023/12/13 06:21:41;;;;;;;0.60;0.40;;;;;;;8.43;100.00;98602.06;5056563;28;20194;-76
2023/12/13 06:24:07;;;;;;;1.50;0.50;;;;;;;8.45;100.00;98605.44;5056887;28;20199;-76
2023/12/13 06:26:32;;;;;;;2.07;0.67;;;;;;;8.47;100.00;98603.69;5049116;28;20182;-76
2023/12/13 06:28:59;;;;;;;0.83;0.40;;;;;;;8.49;100.00;98601.06;5054171;28;20340;-76
2023/12/13 06:31:25;;;;;;;0.37;0.27;;;;;;;8.52;100.00;98601.00;5052863;28;20552;-76
2023/12/13 06:33:50;;;;;;;0.77;0.37;;;;;;;8.53;100.00;98594.97;5060648;28;20772;-76
2023/12/13 06:36:15;;;;;;;0.40;0.30;;;;;;;8.56;100.00;98599.19;5058530;28;20226;-74
2023/12/13 06:38:41;;;;;;;0.40;0.37;;;;;;;8.59;100.00;98597.38;5058085;28;20193;-77
2023/12/13 06:41:06;;;;;;;1.00;0.50;;;;;;;8.61;100.00;98595.59;5058253;28;20194;-76
2023/12/13 06:43:31;;;;;;;0.80;0.40;;;;;;;8.65;100.00;98597.19;5057172;28;20221;-77
2023/12/13 06:45:57;;;;;;;0.50;0.30;;;;;;;8.68;100.00;98604.84;5059942;28;20284;-76
2023/12/13 06:48:22;;;;;;;0.60;0.40;;;;;;;8.71;100.00;98605.66;5060189;28;20262;-76
2023/12/13 06:50:48;;;;;;;0.10;0.10;;;;;;;8.74;100.00;98598.66;5059710;28;20186;-77
2023/12/13 06:53:13;;;;;;;0.30;0.20;;;;;;;8.78;100.00;98604.56;5060811;28;20185;-76
2023/12/13 06:55:39;;;;;;;0.50;0.40;;;;;;;8.82;100.00;98601.03;5059040;28;20202;-77
2023/12/13 06:58:04;;;;;;;0.47;0.40;;;;;;;8.85;100.00;98593.19;5056488;28;20677;-77
2023/12/13 07:00:29;;;;;;;0.30;0.30;;;;;;;8.88;100.00;98595.69;5058400;28;20193;-77
2023/12/13 07:02:55;;;;;;;0.50;0.30;;;;;;;8.90;100.00;98583.59;5066313;28;20178;-75
2023/12/13 07:05:20;;;;;;;0.50;0.47;;;;;;;8.92;100.00;98592.16;5060522;28;20213;-75
2023/12/13 07:07:47;;;;;;;1.77;0.30;;;;;;;8.95;100.00;98598.94;5055765;28;20201;-76
2023/12/13 07:10:12;;;;;;;0.50;0.37;;;;;;;8.97;100.00;98612.66;5063570;28;20208;-76
2023/12/13 07:12:38;;;;;;;1.23;0.47;;;;;;;8.98;100.00;98599.69;5052643;28;20190;-76
2023/12/13 07:15:04;;;;;;;0.63;0.50;;;;;;;8.99;100.00;98596.22;5053545;28;20216;-77
2023/12/13 07:17:29;;;;;;;0.73;0.40;;;;;;;9.02;100.00;98599.59;5058425;28;20951;-76
2023/12/13 07:19:55;;;;;;;1.07;0.50;;;;;;;9.06;100.00;98593.47;5057806;28;20262;-76
2023/12/13 07:22:20;;;;;;;0.60;0.40;;;;;;;9.07;100.00;98590.81;5057490;28;20266;-75
2023/12/13 07:24:46;;;;;;;0.47;0.30;;;;;;;9.09;100.00;98589.06;5058176;28;20220;-76
2023/12/13 07:27:11;;;;;;;0.90;0.50;;;;;;;9.12;100.00;98585.53;5059344;28;20197;-77
2023/12/13 07:29:40;;;;;;;0.80;0.43;;;;;;;9.14;100.00;98592.34;5052005;28;20190;-76
2023/12/13 07:32:05;;;;;;;0.40;0.40;;;;;;;9.16;100.00;98592.28;5055731;28;20194;-74
2023/12/13 07:34:31;;;;;;;1.33;0.60;;;;;;;9.17;100.00;98593.97;5049665;28;20202;-76
2023/12/13 07:36:56;;;;;;;0.77;0.50;;;;;;;9.18;100.00;98605.13;5051364;28;20906;-76
2023/12/13 07:39:24;;;;;;;1.13;0.50;;;;;;;9.18;100.00;98620.63;5050362;28;20571;-76
2023/12/13 07:41:49;;;;;;;0.83;0.50;;;;;;;9.18;100.00;98615.47;5050851;28;21562;-77
2023/12/13 07:44:14;;;;;;;0.77;0.50;;;;;;;9.17;100.00;98603.44;5049919;28;20205;-75
2023/12/13 07:46:40;;;;;;;0.87;0.50;;;;;;;9.15;100.00;98600.91;5055161;28;20197;-76
2023/12/13 07:49:05;;;;;;;1.53;0.60;;;;;;;9.14;100.00;98599.22;5051537;28;20278;-75
2023/12/13 07:51:34;;;;;;;1.30;0.70;;;;;;;9.15;100.00;98601.75;5059975;28;20190;-76
2023/12/13 07:54:01;;;;;;;1.10;0.77;;;;;;;9.16;100.00;98594.88;5054501;28;20227;-77
2023/12/13 07:56:28;;;;;;;2.33;0.80;;;;;;;9.18;100.00;98605.13;5059971;28;20654;-76
2023/12/13 07:58:54;;;;;;;1.37;0.67;;;;;;;9.18;100.00;98613.75;5057850;28;20193;-76
2023/12/13 08:01:19;;;;;;;0.80;0.60;;;;;;;9.18;100.00;98616.31;5058949;28;20186;-77
2023/12/13 08:03:45;;;;;;;1.23;1.00;;;;;;;9.20;100.00;98627.44;5054580;28;20932;-76
2023/12/13 08:06:12;;;;;;;1.17;0.77;;;;;;;9.25;100.00;98624.72;5059582;28;20218;-76
2023/12/13 08:08:39;;;;;;;0.97;0.70;;;;;;;9.28;100.00;98628.03;5057251;28;20191;-76
2023/12/13 08:11:04;;;;;;;2.33;1.20;;;;;;;9.32;100.00;98622.78;5056960;28;20201;-77
2023/12/13 08:13:30;;;;;;;1.83;1.30;;;;;;;9.36;100.00;98632.16;5055995;28;20198;-76
2023/12/13 08:15:55;;;;;;;2.10;1.30;;;;;;;9.39;100.00;98637.19;5056284;28;20205;-74
2023/12/13 08:18:20;;;;;;;1.53;1.27;;;;;;;9.41;100.00;98646.59;5057421;28;20194;-77
2023/12/13 08:20:45;;;;;;;2.50;1.53;;;;;;;9.44;100.00;98633.59;5058746;28;20206;-76
2023/12/13 08:23:11;;;;;;;2.03;1.10;;;;;;;9.48;100.00;98633.47;5052874;28;20603;-76
2023/12/13 08:25:38;;;;;;;1.77;1.23;;;;;;;9.51;100.00;98623.91;5057802;28;20260;-77
2023/12/13 08:28:03;;;;;;;2.33;1.20;;;;;;;9.58;100.00;98624.56;5053026;28;20196;-77
2023/12/13 08:30:28;;;;;;;1.80;1.07;;;;;;;9.63;100.00;98619.25;5055134;28;20194;-76
2023/12/13 08:32:54;;;;;;;3.30;1.03;;;;;;;9.68;100.00;98622.53;5057649;28;20186;-76
2023/12/13 08:35:19;;;;;;;1.47;1.07;;;;;;;9.72;100.00;98627.56;5055344;28;20209;-75
2023/12/13 08:37:44;;;;;;;1.80;1.10;;;;;;;9.75;100.00;98621.44;5056256;28;20691;-75
2023/12/13 08:40:10;;;;;;;2.67;1.23;;;;;;;9.77;100.00;98624.81;5057730;28;20186;-76
2023/12/13 08:42:37;;;;;;;2.40;1.63;;;;;;;9.79;100.00;98619.59;5057673;28;20229;-76
2023/12/13 08:45:03;;;;;;;2.40;1.40;;;;;;;9.80;100.00;98616.97;5061985;28;20241;-76
2023/12/13 08:47:28;;;;;;;2.47;1.70;;;;;;;9.84;100.00;98625.47;5057947;28;20213;-76
2023/12/13 08:49:54;;;;;;;2.10;1.53;;;;;;;9.92;100.00;98620.88;5059865;28;20258;-77
2023/12/13 08:52:20;;;;;;;1.57;1.30;;;;;;;10.02;100.00;98617.09;5061356;28;20273;-76
2023/12/13 08:54:45;;;;;;;2.00;1.60;;;;;;;10.10;100.00;98613.41;5061122;28;20610;-76
2023/12/13 08:57:11;;;;;;;2.00;1.40;;;;;;;10.14;100.00;98608.06;5060012;28;20186;-76
2023/12/13 08:59:36;;;;;;;2.40;1.70;;;;;;;10.19;100.00;98611.34;5061638;28;20714;-77
2023/12/13 09:02:02;;;;;;;2.67;1.53;;;;;;;10.22;100.00;98613.84;5060575;28;20189;-77
2023/12/13 09:04:27;;;;;;;3.00;1.40;;;;;;;10.21;100.00;98606.97;5056182;28;20222;-76
2023/12/13 09:06:52;;;;;;;2.07;1.40;;;;;;;10.22;100.00;98612.97;5061165;28;20215;-77
2023/12/13 09:09:18;;;;;;;2.50;1.10;;;;;;;10.24;100.00;98606.03;5062433;28;20194;-75
2023/12/13 09:11:44;;;;;;;3.73;1.77;;;;;;;10.26;100.00;98606.81;5061848;28;20186;-77
2023/12/13 09:14:10;;;;;;;3.00;1.70;;;;;;;10.31;100.00;98610.09;5056138;28;20190;-76
2023/12/13 09:16:35;;;;;;;1.67;1.57;;;;;;;10.32;100.00;98608.34;5060292;28;20296;-77
2023/12/13 09:19:00;;;;;;;1.40;1.30;;;;;;;10.33;100.00;98616.06;5059938;28;20198;-76
2023/12/13 09:21:26;;;;;;;3.03;1.20;;;;;;;10.35;100.00;98614.28;5057167;28;20623;-76
2023/12/13 09:23:51;;;;;;;2.10;1.30;;;;;;;10.41;100.00;98612.38;5059086;28;20674;-76
2023/12/13 09:26:17;;;;;;;1.73;1.27;;;;;;;10.47;100.00;98618.19;5058922;28;20758;-76
2023/12/13 09:28:42;;;;;;;1.80;1.30;;;;;;;10.57;100.00;98625.63;5061467;28;20343;-76
2023/12/13 09:31:07;;;;;;;3.23;1.60;;;;;;;10.65;100.00;98616.69;5060411;28;20651;-77
2023/12/13 09:33:33;;;;;;;3.03;1.70;;;;;;;10.77;100.00;98617.13;5055676;28;20186;-75
2023/12/13 09:35:58;;;;;;;2.40;1.70;;;;;;;10.88;100.00;98615.00;5057368;28;20281;-76
2023/12/13 09:38:24;;;;;;;3.20;1.90;;;;;;;10.93;100.00;98617.41;5060385;28;20186;-76
2023/12/13 09:40:49;;;;;;;3.03;1.60;;;;;;;10.92;100.00;98613.97;5057838;28;20204;-77
2023/12/13 09:43:14;;;;;;;4.47;1.77;;;;;;;10.89;100.00;98621.84;5058606;28;20659;-77
2023/12/13 09:45:41;;;;;;;3.17;1.80;;;;;;;10.81;100.00;98624.72;5059798;28;21115;-76
2023/12/13 09:48:07;;;;;;;3.33;1.50;;;;;;;10.70;100.00;98626.00;5060355;28;20190;-77
2023/12/13 09:50:34;;;;;;;3.93;1.77;;;;;;;10.61;100.00;98620.28;5058158;28;20636;-75
2023/12/13 09:53:02;;;;;;;3.17;1.30;;;;;;;10.59;100.00;98622.06;5057930;28;20202;-77
2023/12/13 09:55:28;;;;;;;2.80;1.90;;;;;;;10.64;100.00;98627.06;5059155;28;20212;-76
2023/12/13 09:57:53;;;;;;;2.97;2.00;;;;;;;10.66;100.00;98631.28;5059519;28;20273;-77
2023/12/13 10:00:19;;;;;;;2.40;1.80;;;;;;;10.64;100.00;98624.50;5060447;28;20879;-76
2023/12/13 10:02:46;;;;;;;3.07;1.97;;;;;;;10.62;100.00;98626.28;5060883;28;20202;-76
2023/12/13 10:05:12;;;;;;;2.93;1.80;;;;;;;10.60;100.00;98625.50;5061099;28;20641;-76
2023/12/13 10:07:39;;;;;;;2.97;1.97;;;;;;;10.56;100.00;98629.94;5057850;28;20269;-76
2023/12/13 10:10:05;;;;;;;2.90;1.93;;;;;;;10.51;100.00;98627.53;5060831;28;20199;-76
2023/12/13 10:12:30;;;;;;;4.40;2.00;;;;;;;10.50;100.00;98625.84;5057772;28;20269;-75
2023/12/13 10:14:55;;;;;;;2.73;1.83;;;;;;;10.48;100.00;98622.44;5059537;28;20211;-76
2023/12/13 10:17:22;;;;;;;2.20;1.80;;;;;;;10.50;100.00;98619.84;5056980;28;20195;-76
2023/12/13 10:19:47;;;;;;;3.07;1.87;;;;;;;10.49;100.00;98623.31;5056768;28;20193;-76
2023/12/13 10:22:13;;;;;;;3.53;2.93;;;;;;;10.52;100.00;98624.03;5061033;28;20186;-76
2023/12/13 10:24:39;;;;;;;12.43;10.60;;;;;;;10.57;100.00;98618.69;5059543;28;20214;-76
2023/12/13 10:27:04;;;;;;;12.00;10.40;;;;;;;10.55;100.00;98612.72;5059900;28;21233;-77
2023/12/13 10:29:30;;;;;;;10.40;9.30;;;;;;;10.54;100.00;98602.44;5057089;28;20633;-77
2023/12/13 10:31:57;;;;;;;8.30;7.07;;;;;;;10.63;100.00;98604.69;5060310;28;20201;-77
2023/12/13 10:34:22;;;;;;;10.37;9.30;;;;;;;10.79;100.00;98612.75;5056949;28;20282;-77
2023/12/13 10:36:49;;;;;;;22.60;20.27;;;;;;;10.99;100.00;98599.06;5062767;28;20239;-76
2023/12/13 10:39:15;;;;;;;16.40;14.33;;;;;;;11.11;100.00;98600.34;5060942;28;20948;-77
2023/12/13 10:41:44;;;;;;;15.57;14.00;;;;;;;11.15;100.00;98608.84;5060246;28;21008;-77
2023/12/13 10:44:15;;;;;;;13.87;12.57;;;;;;;11.21;100.00;98604.28;5059105;28;20213;-77
2023/12/13 10:46:46;;;;;;;15.33;13.97;;;;;;;11.35;100.00;98595.94;5059256;28;20279;-76
2023/12/13 10:49:15;;;;;;;7.07;6.37;;;;;;;11.46;100.00;98586.94;5058860;28;20305;-76
2023/12/13 10:51:42;;;;;;;3.83;3.30;;;;;;;11.54;100.00;98600.41;5057674;28;20187;-76
2023/12/13 10:54:09;;;;;;;3.20;2.90;;;;;;;11.61;100.00;98601.00;5059922;28;20190;-75
2023/12/13 10:56:34;;;;;;;2.40;2.20;;;;;;;11.66;100.00;98596.47;5058430;28;20195;-76
2023/12/13 10:59:00;;;;;;;2.73;2.20;;;;;;;11.65;100.00;98598.22;5060291;28;20770;-76
2023/12/13 11:01:26;;;;;;;2.67;1.93;;;;;;;11.68;100.00;98589.50;5059169;28;20292;-76
2023/12/13 11:04:01;;;;;;;2.73;2.03;;;;;;;11.73;100.00;98590.13;5058707;28;20191;-76
2023/12/13 11:06:27;;;;;;;6.10;2.30;;;;;;;11.68;100.00;98586.91;5056139;28;20203;-76
2023/12/13 11:08:52;;;;;;;2.73;1.97;;;;;;;11.61;100.00;98590.63;5059890;28;20190;-76
2023/12/13 11:11:18;;;;;;;6.43;2.27;;;;;;;11.57;100.00;98588.16;5058528;28;20917;-76
2023/12/13 11:13:52;;;;;;;2.07;1.70;;;;;;;11.57;100.00;98597.69;5057347;28;20213;-76
2023/12/13 11:16:25;;;;;;;2.03;1.80;;;;;;;11.47;100.00;98589.44;5055502;28;20702;-76
2023/12/13 11:18:52;;;;;;;2.43;1.80;;;;;;;11.36;100.00;98595.03;5054201;28;20188;-76
2023/12/13 11:21:30;;;;;;;2.53;1.60;;;;;;;11.28;100.00;98605.69;5057093;28;20194;-77
2023/12/13 11:23:58;;;;;;;3.37;2.07;;;;;;;11.19;100.00;98598.31;5056888;28;20263;-77